Time;durP1;ratioP1;P1;durP2;ratioP2;P2;SDS_P1;SDS_P2;PMS_P1;PMS_P2;Temp;Humidity;BMP_temperature;BMP_pressure;BME280_temperature;BME280_humidity;BME280_pressure;Samples;Min_cycle;Max_cycle;Signal;HPM_P1;HPM_P2
2022/06/12 00:01:50;;;;;;;10.45;3.67;;;;;;;18.38;59.03;100253.31;5011905;28;20505;-73
2022/06/12 00:04:16;;;;;;;8.05;3.40;;;;;;;18.31;59.09;100257.41;5011859;28;20046;-73
2022/06/12 00:06:42;;;;;;;7.93;3.08;;;;;;;18.19;59.88;100262.69;5011202;28;20084;-73
2022/06/12 00:09:07;;;;;;;7.20;3.42;;;;;;;18.08;60.06;100265.28;5011986;28;20037;-72
2022/06/12 00:11:34;;;;;;;6.00;3.72;;;;;;;17.96;60.53;100261.69;5011975;28;20092;-73
2022/06/12 00:14:03;;;;;;;9.52;3.65;;;;;;;17.85;60.78;100264.28;5010468;28;20117;-74
2022/06/12 00:16:32;;;;;;;7.72;2.55;;;;;;;17.76;61.52;100265.75;5010627;28;20409;-74
2022/06/12 00:18:58;;;;;;;8.57;3.53;;;;;;;17.65;61.86;100268.34;5003174;28;20484;-74
2022/06/12 00:21:31;;;;;;;10.80;3.40;;;;;;;17.55;62.78;100269.97;4993351;28;20045;-73
2022/06/12 00:24:04;;;;;;;7.43;3.30;;;;;;;17.39;63.64;100263.03;5013660;28;20030;-74
2022/06/12 00:26:32;;;;;;;5.55;3.17;;;;;;;17.31;63.06;100261.88;5011009;28;20033;-74
2022/06/12 00:29:01;;;;;;;6.20;2.95;;;;;;;17.25;63.99;100260.47;5009877;28;20069;-73
2022/06/12 00:31:29;;;;;;;6.43;2.60;;;;;;;17.15;64.15;100270.94;5011040;28;20038;-72
2022/06/12 00:33:54;;;;;;;9.38;2.92;;;;;;;17.02;65.26;100266.53;5010457;28;20060;-72
2022/06/12 00:36:19;;;;;;;7.18;3.25;;;;;;;16.82;66.11;100266.09;5010129;28;20113;-72
2022/06/12 00:38:45;;;;;;;5.80;2.70;;;;;;;16.68;66.26;100263.47;5011146;28;20150;-72
2022/06/12 00:41:10;;;;;;;8.77;3.08;;;;;;;16.64;65.85;100265.50;5011196;28;20531;-72
2022/06/12 00:43:37;;;;;;;10.43;3.22;;;;;;;16.53;67.07;100255.53;5009218;28;20038;-72
2022/06/12 00:46:06;;;;;;;7.35;3.13;;;;;;;16.43;67.04;100261.59;5008444;28;20570;-73
2022/06/12 00:48:34;;;;;;;5.47;3.05;;;;;;;16.34;67.34;100263.03;5010825;28;20034;-73
2022/06/12 00:51:15;;;;;;;13.23;3.20;;;;;;;16.31;67.55;100260.56;5011160;28;20726;-73
2022/06/12 00:54:01;;;;;;;3.92;2.58;;;;;;;16.25;67.53;100261.00;5010687;28;20057;-72
2022/06/12 00:56:35;;;;;;;5.40;3.38;;;;;;;16.16;67.92;100269.56;5010241;28;20413;-73
2022/06/12 00:59:08;;;;;;;6.90;2.83;;;;;;;16.08;68.28;100267.41;5010518;28;20371;-73
2022/06/12 01:01:42;;;;;;;6.97;3.47;;;;;;;15.98;68.36;100269.78;5005050;28;20037;-73
2022/06/12 01:06:56;;;;;;;8.70;4.13;;;;;;;15.80;68.94;100277.16;5010493;28;20474;-73
2022/06/12 01:09:30;;;;;;;10.38;3.70;;;;;;;15.75;69.62;100273.94;5011666;28;20052;-75
2022/06/12 01:11:58;;;;;;;6.07;2.97;;;;;;;15.72;69.51;100266.13;5010854;28;20033;-74
2022/06/12 01:14:29;;;;;;;6.72;2.47;;;;;;;15.68;69.65;100267.25;5010448;28;20041;-72
2022/06/12 01:16:57;;;;;;;7.30;2.88;;;;;;;15.62;70.19;100264.97;5010117;28;20526;-73
2022/06/12 01:19:30;;;;;;;5.72;2.65;;;;;;;15.51;70.65;100265.63;5014046;28;20037;-74
2022/06/12 01:22:21;;;;;;;10.57;3.92;;;;;;;15.39;71.34;100264.59;5012315;28;20030;-73
2022/06/12 01:24:46;;;;;;;6.60;3.47;;;;;;;15.35;71.13;100263.06;5010883;28;20076;-73
2022/06/12 01:27:30;;;;;;;9.15;3.10;;;;;;;15.33;71.30;100264.94;5009797;28;20560;-72
2022/06/12 01:30:18;;;;;;;15.00;2.85;;;;;;;15.26;71.68;100258.34;5010545;28;20029;-73
2022/06/12 01:33:09;;;;;;;8.27;3.28;;;;;;;15.19;71.97;100251.69;5010163;28;20502;-73
2022/06/12 01:35:46;;;;;;;10.52;3.40;;;;;;;15.14;71.99;100259.06;5010298;28;20041;-73
2022/06/12 01:38:35;;;;;;;8.73;3.15;;;;;;;15.05;72.52;100244.53;5008676;28;20832;-73
2022/06/12 01:41:19;;;;;;;6.78;3.22;;;;;;;14.99;72.66;100255.56;4997546;28;20482;-73
2022/06/12 01:44:16;;;;;;;9.45;3.92;;;;;;;14.93;73.06;100248.78;5009680;28;20033;-72
2022/06/12 01:47:03;;;;;;;8.07;3.85;;;;;;;14.88;73.16;100239.41;5009617;28;20374;-73
2022/06/12 01:49:39;;;;;;;10.23;3.72;;;;;;;14.85;73.23;100245.75;5008723;28;20125;-75
2022/06/12 01:52:28;;;;;;;8.40;4.35;;;;;;;14.80;73.19;100240.69;5010136;28;20520;-74
2022/06/12 01:55:06;;;;;;;7.55;3.00;;;;;;;14.76;73.61;100249.78;5009728;28;20022;-73
2022/06/12 01:57:40;;;;;;;9.48;4.22;;;;;;;14.71;73.55;100251.84;5008846;28;20049;-72
2022/06/12 02:00:09;;;;;;;9.23;3.40;;;;;;;14.62;74.08;100244.47;5009421;28;20051;-74
2022/06/12 02:03:01;;;;;;;5.72;2.95;;;;;;;14.59;74.31;100244.63;5009295;28;20494;-73
2022/06/12 02:05:37;;;;;;;7.32;4.43;;;;;;;14.54;74.16;100244.88;5008440;28;20042;-75
2022/06/12 02:08:14;;;;;;;11.88;4.30;;;;;;;14.44;75.23;100250.78;5008851;28;20026;-74
2022/06/12 02:10:48;;;;;;;10.68;3.78;;;;;;;14.42;75.09;100248.22;5007606;28;20041;-74
2022/06/12 02:13:21;;;;;;;10.55;3.70;;;;;;;14.42;74.93;100252.66;5009058;28;20464;-73
2022/06/12 02:15:52;;;;;;;7.95;3.67;;;;;;;14.38;74.96;100266.13;5007615;28;20058;-73
2022/06/12 02:18:29;;;;;;;8.45;3.15;;;;;;;14.34;75.13;100253.97;5009187;28;20061;-74
2022/06/12 02:21:22;;;;;;;6.15;3.28;;;;;;;14.33;75.21;100262.88;5009686;28;20022;-73
2022/06/12 02:23:56;;;;;;;8.38;3.78;;;;;;;14.31;75.00;100256.78;5010015;28;20044;-73
2022/06/12 02:26:34;;;;;;;10.02;4.28;;;;;;;14.24;75.67;100257.25;5009369;28;20061;-73
2022/06/12 02:29:06;;;;;;;11.10;3.75;;;;;;;14.17;75.70;100254.06;5008145;28;20065;-74
2022/06/12 02:31:38;;;;;;;14.45;4.60;;;;;;;14.16;76.10;100249.72;5009942;28;20056;-73
2022/06/12 02:34:09;;;;;;;8.57;4.28;;;;;;;14.15;75.74;100248.00;5009745;28;20061;-73
2022/06/12 02:36:39;;;;;;;8.13;3.30;;;;;;;14.16;75.83;100255.03;5009194;28;20486;-73
2022/06/12 02:39:17;;;;;;;10.20;3.63;;;;;;;14.21;75.66;100260.06;5008098;28;20065;-73
2022/06/12 02:41:48;;;;;;;10.25;3.72;;;;;;;14.19;75.50;100257.50;5009317;28;20057;-73
2022/06/12 02:44:26;;;;;;;15.05;4.72;;;;;;;14.20;76.10;100253.03;5009636;28;20046;-73
2022/06/12 02:47:05;;;;;;;8.30;4.35;;;;;;;14.20;76.28;100255.69;5007217;28;20113;-73
2022/06/12 02:49:33;;;;;;;6.13;3.58;;;;;;;14.20;76.15;100256.56;5009229;28;21834;-73
2022/06/12 02:52:04;;;;;;;8.48;3.58;;;;;;;14.22;75.79;100252.00;5009361;28;20054;-73
2022/06/12 02:54:53;;;;;;;11.52;4.18;;;;;;;14.15;75.97;100254.19;5009218;28;20108;-72
2022/06/12 02:57:50;;;;;;;13.70;4.88;;;;;;;14.12;76.11;100259.63;5008389;28;20038;-73
2022/06/12 03:01:00;;;;;;;6.93;3.25;;;;;;;14.12;76.46;100266.72;5003704;28;20038;-73
2022/06/12 03:03:51;;;;;;;8.65;3.25;;;;;;;14.12;75.77;100262.28;5008685;28;20080;-72
2022/06/12 03:06:17;;;;;;;8.82;3.85;;;;;;;14.10;76.21;100261.53;5007518;28;20041;-73
2022/06/12 03:08:50;;;;;;;17.13;5.03;;;;;;;14.12;76.38;100256.97;5009034;28;20026;-73
2022/06/12 03:11:24;;;;;;;7.18;4.00;;;;;;;14.15;76.50;100261.25;5008788;28;20029;-72
2022/06/12 03:13:52;;;;;;;6.65;3.65;;;;;;;14.14;75.91;100256.91;5008537;28;20113;-74
2022/06/12 03:16:31;;;;;;;9.35;3.90;;;;;;;14.16;75.83;100257.69;5007931;28;20041;-72
2022/06/12 03:19:00;;;;;;;11.18;4.20;;;;;;;14.15;75.72;100261.25;5008910;28;20034;-73
2022/06/12 03:21:50;;;;;;;14.00;4.80;;;;;;;14.06;76.29;100257.34;5009646;28;20513;-73
2022/06/12 03:24:42;;;;;;;9.30;3.88;;;;;;;14.02;76.06;100262.91;5012302;28;20072;-72
2022/06/12 03:27:20;;;;;;;8.07;3.70;;;;;;;14.03;76.07;100254.00;5011642;28;20038;-71
2022/06/12 03:29:48;;;;;;;8.85;4.50;;;;;;;14.01;75.76;100262.03;5011977;28;20033;-72
2022/06/12 03:32:25;;;;;;;6.47;3.28;;;;;;;13.97;76.39;100260.50;5012260;28;20034;-72
2022/06/12 03:35:00;;;;;;;12.05;4.82;;;;;;;13.89;76.98;100263.56;5012245;28;20030;-73
2022/06/12 03:37:47;;;;;;;10.35;4.53;;;;;;;13.84;76.70;100264.78;5011555;28;20041;-72
2022/06/12 03:40:28;;;;;;;12.23;4.35;;;;;;;13.80;76.44;100276.47;5011956;28;20046;-72
2022/06/12 03:43:02;;;;;;;9.20;4.22;;;;;;;13.73;76.93;100274.19;5011310;28;20033;-72
2022/06/12 03:46:00;;;;;;;9.38;4.10;;;;;;;13.76;76.58;100278.44;5012123;28;20627;-73
2022/06/12 03:48:38;;;;;;;8.60;3.83;;;;;;;13.76;76.93;100278.44;5011625;28;20120;-72
2022/06/12 03:51:13;;;;;;;12.88;4.53;;;;;;;13.73;76.71;100283.91;5011997;28;20039;-72
2022/06/12 03:53:51;;;;;;;6.95;3.72;;;;;;;13.72;76.41;100284.84;5010350;28;20029;-72
2022/06/12 03:59:38;;;;;;;7.20;4.18;;;;;;;13.77;76.28;100295.19;5011825;28;20517;-72
2022/06/12 04:02:08;;;;;;;5.63;2.90;;;;;;;13.75;76.02;100288.19;5010893;28;20436;-72
2022/06/12 04:04:36;;;;;;;9.65;3.70;;;;;;;13.73;76.30;100287.44;5011493;28;20038;-72
2022/06/12 04:07:07;;;;;;;9.65;4.28;;;;;;;13.72;76.36;100280.41;5010968;28;20477;-72
2022/06/12 04:09:37;;;;;;;9.43;4.10;;;;;;;13.71;75.58;100284.00;5010309;28;20470;-72
2022/06/12 04:12:07;;;;;;;10.93;4.55;;;;;;;13.71;75.53;100283.16;5011889;28;20029;-72
2022/06/12 04:14:39;;;;;;;12.50;3.78;;;;;;;13.72;75.48;100282.19;5009297;28;20049;-73
2022/06/12 04:17:05;;;;;;;7.68;4.70;;;;;;;13.72;75.96;100274.25;5010731;28;20117;-72
2022/06/12 04:19:58;;;;;;;9.07;3.75;;;;;;;13.75;75.69;100277.56;5011754;28;20116;-72
2022/06/12 04:22:21;;;;;;;6.72;3.20;;;;;;;13.80;75.51;100274.69;5011694;28;20598;-72
2022/06/12 04:24:54;;;;;;;9.43;3.78;;;;;;;13.81;74.46;100273.75;5010105;28;20473;-72
2022/06/12 04:27:28;;;;;;;12.48;4.22;;;;;;;13.83;74.30;100271.88;5010732;28;20233;-72
2022/06/12 04:30:14;;;;;;;11.95;4.57;;;;;;;13.87;74.02;100275.22;5011243;28;20041;-72
2022/06/12 04:32:39;;;;;;;7.72;3.60;;;;;;;13.92;73.56;100276.66;5011560;28;20379;-72
2022/06/12 04:35:05;;;;;;;5.15;3.40;;;;;;;13.96;72.82;100283.50;5011000;28;20045;-72
2022/06/12 04:37:32;;;;;;;8.57;4.65;;;;;;;14.02;72.56;100277.00;5008861;28;20053;-73
2022/06/12 04:39:59;;;;;;;7.85;3.05;;;;;;;14.10;72.41;100281.88;5011099;28;20026;-72
2022/06/12 04:42:30;;;;;;;6.53;3.03;;;;;;;14.16;71.52;100286.84;5009596;28;20165;-72
2022/06/12 04:44:55;;;;;;;10.07;3.38;;;;;;;14.25;71.05;100288.09;5011092;28;20448;-72
2022/06/12 04:47:23;;;;;;;6.15;3.53;;;;;;;14.30;71.46;100288.69;5010618;28;20029;-71
2022/06/12 04:49:49;;;;;;;11.13;3.70;;;;;;;14.37;70.98;100283.00;5011083;28;20129;-73
2022/06/12 04:52:16;;;;;;;11.38;3.60;;;;;;;14.43;70.94;100283.56;5011171;28;20030;-72
2022/06/12 04:54:44;;;;;;;6.65;3.00;;;;;;;14.50;70.28;100277.81;5011153;28;20490;-72
2022/06/12 04:57:11;;;;;;;6.72;3.22;;;;;;;14.57;69.76;100283.66;5010601;28;20060;-73
2022/06/12 04:59:37;;;;;;;8.00;4.30;;;;;;;14.65;69.75;100269.97;5009482;28;20069;-72
2022/06/12 05:02:03;;;;;;;6.15;3.28;;;;;;;14.73;69.25;100271.22;5009208;28;20030;-72
2022/06/12 05:04:30;;;;;;;8.13;3.40;;;;;;;14.85;68.48;100276.75;5010407;28;20595;-72
2022/06/12 05:06:56;;;;;;;8.05;3.47;;;;;;;14.94;68.53;100281.50;5009965;28;20413;-72
2022/06/12 05:09:27;;;;;;;8.60;3.92;;;;;;;15.05;68.23;100286.19;5010644;28;20040;-73
2022/06/12 05:11:53;;;;;;;4.65;2.65;;;;;;;15.17;67.11;100280.13;5010613;28;20458;-72
2022/06/12 05:14:18;;;;;;;6.90;3.17;;;;;;;15.28;65.17;100276.81;5008631;28;20091;-72
2022/06/12 05:16:49;;;;;;;6.65;2.95;;;;;;;15.39;64.20;100280.53;5009912;28;20115;-73
2022/06/12 05:19:19;;;;;;;6.07;2.53;;;;;;;15.49;63.52;100286.13;5010216;28;20033;-73
2022/06/12 05:21:44;;;;;;;10.30;3.83;;;;;;;15.57;62.47;100283.84;5010395;28;20034;-72
2022/06/12 05:24:10;;;;;;;8.25;2.92;;;;;;;15.61;61.82;100290.69;5010609;28;20025;-73
2022/06/12 05:26:38;;;;;;;8.88;3.50;;;;;;;15.68;61.30;100281.38;5009589;28;20109;-73
2022/06/12 05:29:06;;;;;;;6.45;2.72;;;;;;;15.77;61.65;100279.13;5010028;28;20042;-73
2022/06/12 05:31:32;;;;;;;7.28;3.08;;;;;;;15.85;60.35;100283.03;5010606;28;20400;-73
2022/06/12 05:33:57;;;;;;;7.45;2.72;;;;;;;15.96;60.04;100284.16;5010702;28;20030;-72
2022/06/12 05:36:24;;;;;;;7.25;2.83;;;;;;;16.13;58.85;100277.75;5009343;28;20129;-72
2022/06/12 05:38:50;;;;;;;3.22;2.20;;;;;;;16.28;58.38;100277.59;5010353;28;20398;-72
2022/06/12 05:41:17;;;;;;;7.88;3.05;;;;;;;16.44;57.73;100276.59;5010198;28;20029;-73
2022/06/12 05:43:42;;;;;;;7.65;2.58;;;;;;;16.48;57.49;100273.63;5009939;28;20030;-73
2022/06/12 05:46:09;;;;;;;8.55;4.07;;;;;;;16.65;56.57;100272.50;5009108;28;20092;-73
2022/06/12 05:48:35;;;;;;;7.15;3.17;;;;;;;16.80;55.24;100273.31;5009525;28;20036;-73
2022/06/12 05:51:01;;;;;;;7.95;2.58;;;;;;;17.04;54.85;100269.97;5009374;28;20402;-73
2022/06/12 05:53:29;;;;;;;6.55;2.33;;;;;;;17.39;52.89;100280.84;5009535;28;20040;-73
2022/06/12 05:55:55;;;;;;;6.68;2.45;;;;;;;17.62;52.77;100278.38;5009418;28;20088;-73
2022/06/12 05:58:22;;;;;;;6.65;2.40;;;;;;;17.56;51.88;100274.34;5009547;28;20034;-73
2022/06/12 06:00:50;;;;;;;10.07;3.13;;;;;;;17.51;52.00;100274.66;5009832;28;20040;-73
2022/06/12 06:03:15;;;;;;;8.13;2.53;;;;;;;17.41;51.74;100278.06;5009642;28;20359;-73
2022/06/12 06:05:43;;;;;;;8.52;2.85;;;;;;;17.43;52.75;100269.00;5010144;28;20029;-73
2022/06/12 06:08:08;;;;;;;10.48;4.13;;;;;;;17.48;51.92;100277.53;5008642;28;20068;-72
2022/06/12 06:10:35;;;;;;;11.90;3.30;;;;;;;17.42;52.48;100277.09;5009535;28;20059;-72
2022/06/12 06:13:00;;;;;;;5.93;2.95;;;;;;;17.37;52.75;100283.59;5008024;28;20037;-72
2022/06/12 06:15:26;;;;;;;9.02;2.60;;;;;;;17.39;52.63;100281.69;5009583;28;20556;-73
2022/06/12 06:17:55;;;;;;;8.85;2.67;;;;;;;17.38;52.48;100285.31;5008871;28;20464;-72
2022/06/12 06:20:26;;;;;;;6.78;2.88;;;;;;;17.48;52.77;100279.34;5009519;28;20061;-73
2022/06/12 06:22:53;;;;;;;8.32;3.10;;;;;;;17.51;52.69;100282.66;5010743;28;20026;-73
2022/06/12 06:25:20;;;;;;;7.57;2.88;;;;;;;17.51;53.36;100285.31;5010686;28;20083;-73
2022/06/12 06:27:46;;;;;;;7.50;3.05;;;;;;;17.54;53.41;100279.75;5014028;28;20433;-72
2022/06/12 06:30:12;;;;;;;10.15;2.83;;;;;;;17.59;54.15;100276.78;5015209;28;20033;-73
2022/06/12 06:32:37;;;;;;;10.68;2.85;;;;;;;17.64;53.96;100277.28;5012054;28;20030;-73
2022/06/12 06:35:04;;;;;;;6.85;3.20;;;;;;;17.74;53.87;100280.16;5017605;28;20045;-73
2022/06/12 06:37:31;;;;;;;7.10;3.20;;;;;;;17.85;53.53;100282.97;5015426;28;20702;-74
2022/06/12 06:39:56;;;;;;;6.20;2.95;;;;;;;18.07;53.16;100286.75;5015719;28;20065;-73
2022/06/12 06:42:23;;;;;;;4.85;2.72;;;;;;;18.41;52.02;100298.47;5014489;28;20104;-73
2022/06/12 06:47:33;;;;;;;9.27;3.22;;;;;;;18.66;51.42;100290.34;5008935;28;20505;-73
2022/06/12 06:49:58;;;;;;;5.15;2.42;;;;;;;18.66;51.34;100285.00;5009474;28;20042;-73
2022/06/12 06:52:23;;;;;;;7.20;3.17;;;;;;;18.72;50.49;100285.50;5007583;28;20571;-73
2022/06/12 06:54:49;;;;;;;5.60;2.45;;;;;;;18.75;50.26;100286.13;5009087;28;20038;-74
2022/06/12 06:57:14;;;;;;;6.30;2.53;;;;;;;18.71;50.20;100292.69;5010121;28;20045;-73
2022/06/12 06:59:40;;;;;;;9.50;2.83;;;;;;;18.72;50.09;100297.03;5013326;28;20061;-73
2022/06/12 07:02:06;;;;;;;7.47;3.47;;;;;;;18.66;48.30;100293.03;5012613;28;20401;-73
2022/06/12 07:04:32;;;;;;;6.18;2.35;;;;;;;18.63;47.27;100295.94;5012633;28;20060;-73
2022/06/12 07:06:57;;;;;;;10.05;2.70;;;;;;;18.60;47.36;100309.47;5012201;28;20506;-72
2022/06/12 07:09:23;;;;;;;8.30;2.90;;;;;;;18.58;47.64;100303.44;5013017;28;20044;-73
2022/06/12 07:11:48;;;;;;;4.72;2.65;;;;;;;18.60;47.02;100303.31;5013260;28;20066;-73
2022/06/12 07:14:14;;;;;;;7.78;3.00;;;;;;;18.67;47.39;100299.22;5012883;28;20038;-73
2022/06/12 07:16:42;;;;;;;5.63;2.35;;;;;;;18.73;47.67;100290.75;5012409;28;20034;-73
2022/06/12 07:19:08;;;;;;;4.68;2.17;;;;;;;18.78;46.61;100291.28;5012495;28;20026;-72
2022/06/12 07:21:34;;;;;;;7.22;2.65;;;;;;;18.85;46.79;100291.66;5012475;28;20109;-72
2022/06/12 07:23:59;;;;;;;5.10;2.20;;;;;;;19.06;46.31;100289.19;5012683;28;20129;-72
2022/06/12 07:26:33;;;;;;;5.63;2.42;;;;;;;19.24;45.55;100284.22;5010594;28;20038;-72
2022/06/12 07:28:59;;;;;;;5.45;2.22;;;;;;;19.61;44.72;100286.69;5013081;28;20516;-72
2022/06/12 07:31:24;;;;;;;8.50;2.50;;;;;;;19.77;44.74;100281.88;5013183;28;20046;-73
2022/06/12 07:33:50;;;;;;;14.10;2.88;;;;;;;19.98;44.30;100286.47;5012331;28;20057;-72
2022/06/12 07:36:17;;;;;;;5.03;2.25;;;;;;;20.26;41.88;100283.25;5011516;28;20105;-73
2022/06/12 07:38:44;;;;;;;7.65;2.15;;;;;;;20.40;41.81;100291.97;5012426;28;20033;-73
2022/06/12 07:41:11;;;;;;;5.20;2.00;;;;;;;20.53;41.89;100288.19;5012477;28;20057;-72
2022/06/12 07:43:38;;;;;;;8.15;2.25;;;;;;;20.63;41.55;100293.66;5012083;28;20482;-73
2022/06/12 07:46:07;;;;;;;5.80;2.17;;;;;;;20.75;41.20;100298.00;5010304;28;20044;-73
2022/06/12 07:48:32;;;;;;;4.75;2.08;;;;;;;20.88;41.03;100291.59;5011068;28;20041;-72
2022/06/12 07:51:00;;;;;;;7.43;2.17;;;;;;;20.90;40.71;100289.63;5011186;28;20485;-73
2022/06/12 07:53:26;;;;;;;4.63;2.65;;;;;;;20.95;39.36;100282.91;5012161;28;20787;-72
2022/06/12 07:55:52;;;;;;;5.68;2.42;;;;;;;20.87;39.92;100289.88;5011567;28;20137;-74
2022/06/12 07:58:20;;;;;;;5.10;2.03;;;;;;;20.80;40.46;100293.09;5011859;28;20544;-74
2022/06/12 08:00:46;;;;;;;6.70;2.00;;;;;;;20.88;40.99;100295.13;5011146;28;20034;-73
2022/06/12 08:03:11;;;;;;;7.15;3.15;;;;;;;20.86;40.97;100296.22;5012303;28;20033;-72
2022/06/12 08:05:37;;;;;;;5.03;1.90;;;;;;;20.85;40.42;100292.72;5011674;28;20385;-72
2022/06/12 08:08:03;;;;;;;5.32;2.33;;;;;;;20.96;40.26;100292.63;5010343;28;21565;-73
2022/06/12 08:10:28;;;;;;;4.60;1.92;;;;;;;20.92;39.73;100288.53;5011279;28;20173;-73
2022/06/12 08:12:56;;;;;;;4.03;1.70;;;;;;;20.97;39.22;100296.19;5011376;28;20618;-73
2022/06/12 08:15:26;;;;;;;5.35;2.40;;;;;;;21.06;38.46;100289.19;5011266;28;20437;-73
2022/06/12 08:17:53;;;;;;;4.63;2.15;;;;;;;21.02;38.36;100289.44;5010229;28;20030;-73
2022/06/12 08:20:24;;;;;;;7.13;2.20;;;;;;;21.08;38.46;100290.75;5011061;28;20038;-73
2022/06/12 08:22:57;;;;;;;6.15;2.30;;;;;;;21.21;38.40;100287.84;5009966;28;20068;-73
2022/06/12 08:25:23;;;;;;;5.43;2.22;;;;;;;21.23;38.39;100291.25;5011556;28;20398;-73
2022/06/12 08:27:48;;;;;;;6.43;1.77;;;;;;;21.50;43.59;100296.09;5006166;28;20038;-53
2022/06/12 08:30:14;;;;;;;5.70;2.35;;;;;;;21.64;39.21;100294.91;4996509;28;20509;-53
2022/06/12 08:32:43;;;;;;;9.80;3.10;;;;;;;21.68;38.30;100296.31;5008069;28;20509;-48
2022/06/12 08:35:20;;;;;;;3.72;1.65;;;;;;;21.69;37.77;100286.47;5011034;28;20036;-44
2022/06/12 08:37:46;;;;;;;2.97;1.80;;;;;;;21.72;37.48;100288.88;5007587;28;20034;-54
2022/06/12 08:40:36;;;;;;;3.45;1.92;;;;;;;21.81;37.84;100296.13;5011604;28;20452;-54
2022/06/12 08:43:09;;;;;;;4.45;2.22;;;;;;;21.95;37.81;100292.19;4986935;28;20117;-51
2022/06/12 08:45:45;;;;;;;6.97;2.40;;;;;;;22.07;40.45;100291.09;4991425;28;20030;-55
2022/06/12 08:48:28;;;;;;;5.90;1.80;;;;;;;22.14;37.31;100289.56;4990747;28;20023;-48
2022/06/12 08:51:02;;;;;;;4.30;1.95;;;;;;;22.25;37.88;100280.59;5008606;28;20026;-49
2022/06/12 08:53:40;;;;;;;4.10;2.67;;;;;;;22.32;37.73;100275.50;5010179;28;20175;-49
2022/06/12 08:56:12;;;;;;;7.50;2.17;;;;;;;22.35;37.20;100277.91;5009730;28;20409;-44
2022/06/12 08:58:49;;;;;;;3.35;2.17;;;;;;;22.65;36.77;100275.09;5010424;28;20555;-52
2022/06/12 09:01:15;;;;;;;6.18;1.95;;;;;;;23.31;36.29;100271.66;5010446;28;20089;-44
2022/06/12 09:03:45;;;;;;;6.00;2.33;;;;;;;23.97;34.75;100267.16;5009621;28;20409;-47
2022/06/12 09:06:27;;;;;;;4.82;2.40;;;;;;;24.37;34.17;100261.38;5009472;28;20141;-53
2022/06/12 09:09:15;;;;;;;6.28;2.22;;;;;;;24.52;33.70;100255.50;5010143;28;20112;-43
2022/06/12 09:12:08;;;;;;;5.45;2.30;;;;;;;24.93;33.31;100259.34;5010617;28;20026;-47
2022/06/12 09:14:53;;;;;;;10.60;2.40;;;;;;;25.18;32.87;100255.03;5009618;28;20490;-49
2022/06/12 09:17:36;;;;;;;5.75;2.85;;;;;;;25.37;32.10;100256.66;5009269;28;20068;-50
2022/06/12 09:20:17;;;;;;;6.25;2.90;;;;;;;25.35;32.44;100252.41;5009700;28;20401;-49
2022/06/12 09:23:24;;;;;;;5.65;2.75;;;;;;;25.63;31.91;100247.69;5003644;28;20576;-49
2022/06/12 09:25:53;;;;;;;7.28;3.03;;;;;;;25.97;31.85;100238.75;5010793;28;20346;-44
2022/06/12 09:28:46;;;;;;;4.07;2.97;;;;;;;27.02;29.95;100241.72;5009754;28;20038;-47
2022/06/12 09:31:27;;;;;;;6.82;3.50;;;;;;;27.27;29.81;100239.84;5010128;28;20390;-52
2022/06/12 09:34:06;;;;;;;7.47;3.30;;;;;;;28.13;28.94;100236.34;5007563;28;20107;-52
2022/06/12 09:36:41;;;;;;;8.77;3.55;;;;;;;28.75;27.56;100234.53;5008715;28;20037;-52
2022/06/12 09:39:28;;;;;;;6.82;3.15;;;;;;;28.87;27.18;100231.22;5009852;28;20046;-72
2022/06/12 09:42:04;;;;;;;9.15;3.72;;;;;;;28.98;27.38;100237.22;5009980;28;20065;-74
2022/06/12 09:44:55;;;;;;;8.57;3.58;;;;;;;29.05;27.44;100232.75;5010016;28;20029;-73
2022/06/12 09:47:32;;;;;;;6.30;3.15;;;;;;;29.42;26.28;100228.31;5008433;28;20030;-71
2022/06/12 09:50:07;;;;;;;15.00;8.95;;;;;;;29.68;26.11;100226.00;5010145;28;20575;-73
2022/06/12 09:52:58;;;;;;;7.13;3.33;;;;;;;29.79;26.40;100226.53;5009972;28;20095;-72
2022/06/12 09:55:59;;;;;;;7.95;3.55;;;;;;;29.82;26.09;100215.28;5009770;28;20034;-72
2022/06/12 09:58:44;;;;;;;7.05;3.70;;;;;;;30.03;25.85;100228.06;5007860;28;20046;-72
2022/06/12 10:01:12;;;;;;;8.25;3.22;;;;;;;29.91;25.50;100220.41;5009655;28;20116;-74
2022/06/12 10:04:02;;;;;;;7.60;3.30;;;;;;;30.18;25.66;100218.84;5009610;28;20397;-73
2022/06/12 10:06:42;;;;;;;7.18;3.08;;;;;;;29.97;24.85;100221.50;5008076;28;20492;-72
2022/06/12 10:09:18;;;;;;;5.43;2.92;;;;;;;30.20;24.59;100225.94;5009714;28;20030;-72
2022/06/12 10:11:54;;;;;;;7.47;3.30;;;;;;;30.46;24.52;100228.97;5008752;28;20025;-73
2022/06/12 10:14:34;;;;;;;8.98;3.20;;;;;;;30.33;25.14;100224.25;5008915;28;20053;-73
2022/06/12 10:17:02;;;;;;;6.35;3.20;;;;;;;30.71;25.13;100226.69;5006829;28;20528;-73
2022/06/12 10:19:33;;;;;;;6.30;3.38;;;;;;;30.86;25.29;100221.19;5007507;28;20559;-71
2022/06/12 10:22:08;;;;;;;7.80;3.45;;;;;;;30.63;24.11;100232.28;5008020;28;20037;-71
2022/06/12 10:24:33;;;;;;;7.65;3.35;;;;;;;30.54;24.56;100228.84;5008586;28;20042;-72
2022/06/12 10:27:08;;;;;;;5.90;2.80;;;;;;;30.38;24.27;100218.22;5008207;28;20540;-73
2022/06/12 10:30:00;;;;;;;8.15;4.13;;;;;;;30.15;24.71;100211.06;5009334;28;20042;-73
2022/06/12 10:32:46;;;;;;;7.53;3.40;;;;;;;30.10;24.18;100229.84;5009853;28;20501;-72
2022/06/12 10:35:18;;;;;;;5.70;3.15;;;;;;;30.36;24.72;100218.41;5013136;28;20120;-71
2022/06/12 10:37:43;;;;;;;8.15;3.03;;;;;;;30.59;23.67;100220.94;5012798;28;20091;-71
2022/06/12 10:40:13;;;;;;;10.50;3.15;;;;;;;30.67;24.31;100219.09;5013710;28;20037;-72
2022/06/12 10:43:03;;;;;;;6.00;2.95;;;;;;;30.59;24.19;100212.78;5013635;28;20042;-72
2022/06/12 10:45:30;;;;;;;8.70;3.30;;;;;;;30.52;24.15;100211.88;5016737;28;20631;-72
2022/06/12 10:48:02;;;;;;;9.52;3.53;;;;;;;30.37;24.26;100206.50;5020341;28;20045;-72
2022/06/12 10:50:35;;;;;;;9.55;3.45;;;;;;;30.16;24.24;100207.28;5015236;28;20049;-72
2022/06/12 10:53:22;;;;;;;5.50;2.55;;;;;;;30.01;24.35;100219.28;5009532;28;20041;-72
2022/06/12 10:55:58;;;;;;;9.57;2.92;;;;;;;30.32;24.34;100206.25;5009809;28;20030;-74
2022/06/12 10:58:54;;;;;;;6.20;2.83;;;;;;;29.89;24.98;100208.88;5015525;28;20057;-72
2022/06/12 11:01:50;;;;;;;6.22;2.80;;;;;;;28.95;27.02;100208.56;5016307;28;20490;-73
2022/06/12 11:04:22;;;;;;;11.40;3.60;;;;;;;28.04;28.71;100203.00;5012736;28;20064;-73
2022/06/12 11:07:03;;;;;;;10.35;3.72;;;;;;;27.28;27.96;100198.25;5012696;28;20033;-73
2022/06/12 11:09:44;;;;;;;6.88;3.17;;;;;;;26.50;28.70;100210.44;5011900;28;20520;-73
2022/06/12 11:12:41;;;;;;;9.13;3.30;;;;;;;26.25;30.47;100209.56;5011615;28;20569;-72
2022/06/12 11:15:12;;;;;;;8.10;3.45;;;;;;;25.82;31.06;100201.53;5009402;28;20052;-73
2022/06/12 11:18:01;;;;;;;10.20;3.28;;;;;;;25.67;31.83;100203.13;5012276;28;20045;-72
2022/06/12 11:20:35;;;;;;;6.72;3.60;;;;;;;25.56;31.46;100196.19;5012524;28;20037;-73
2022/06/12 11:23:26;;;;;;;11.02;3.55;;;;;;;25.52;31.61;100188.56;5008723;28;20737;-73
2022/06/12 11:26:16;;;;;;;12.55;3.88;;;;;;;25.55;31.90;100204.44;4973451;28;20038;-74
2022/06/12 11:29:32;;;;;;;9.93;3.55;;;;;;;25.47;32.65;100194.44;5006855;28;20046;-74
2022/06/12 11:32:25;;;;;;;10.18;4.00;;;;;;;25.53;33.71;100190.28;4944854;28;20458;-73
2022/06/12 11:34:50;;;;;;;6.78;3.33;;;;;;;25.13;34.42;100191.72;4944633;28;20376;-72
2022/06/12 11:37:24;;;;;;;9.15;3.85;;;;;;;25.16;34.20;100186.84;4982950;28;20084;-74
2022/06/12 11:40:42;;;;;;;12.40;4.25;;;;;;;24.99;34.30;100188.59;5005946;28;20405;-74
2022/06/12 11:43:22;;;;;;;9.73;4.13;;;;;;;25.09;34.48;100187.66;4976439;28;20094;-74
2022/06/12 11:45:59;;;;;;;13.68;4.10;;;;;;;25.08;34.50;100184.13;4983486;28;20042;-74
2022/06/12 11:48:40;;;;;;;11.57;3.17;;;;;;;24.93;33.19;100183.84;4997731;28;20046;-73
2022/06/12 11:51:30;;;;;;;6.00;3.65;;;;;;;24.89;33.83;100187.88;5006109;28;20065;-73
2022/06/12 11:54:25;;;;;;;11.27;3.60;;;;;;;24.93;34.08;100172.19;5005801;28;20108;-72
2022/06/12 11:57:12;;;;;;;7.85;3.28;;;;;;;24.81;33.56;100169.78;5005125;28;20057;-73
2022/06/12 12:00:01;;;;;;;5.95;3.22;;;;;;;24.75;33.94;100148.00;5006277;28;20176;-72
2022/06/12 12:02:53;;;;;;;9.70;4.10;;;;;;;24.57;34.28;100156.13;5005764;28;20401;-72
2022/06/12 12:05:38;;;;;;;10.13;3.65;;;;;;;24.77;34.88;100163.00;5005423;28;20068;-71